sensor_id;sensor_type;location;lat;lon;timestamp;P1;durP1;ratioP1;P2;durP2;ratioP2
9374;SDS011;4727;51.202;6.344;2022-10-15T00:00:45;24.57;;;20.70;;
9374;SDS011;4727;51.202;6.344;2022-10-15T00:03:12;20.97;;;18.87;;
9374;SDS011;4727;51.202;6.344;2022-10-15T00:05:38;23.30;;;19.47;;
9374;SDS011;4727;51.202;6.344;2022-10-15T00:08:05;21.73;;;19.50;;
9374;SDS011;4727;51.202;6.344;2022-10-15T00:10:32;22.57;;;20.17;;
9374;SDS011;4727;51.202;6.344;2022-10-15T00:12:58;19.73;;;17.63;;
9374;SDS011;4727;51.202;6.344;2022-10-15T00:15:24;21.07;;;18.90;;
9374;SDS011;4727;51.202;6.344;2022-10-15T00:17:49;22.37;;;19.47;;
9374;SDS011;4727;51.202;6.344;2022-10-15T00:20:15;21.07;;;18.73;;
9374;SDS011;4727;51.202;6.344;2022-10-15T00:22:41;19.47;;;17.47;;
9374;SDS011;4727;51.202;6.344;2022-10-15T00:25:07;19.73;;;17.67;;
9374;SDS011;4727;51.202;6.344;2022-10-15T00:27:33;19.60;;;17.63;;
9374;SDS011;4727;51.202;6.344;2022-10-15T00:29:59;19.77;;;17.90;;
9374;SDS011;4727;51.202;6.344;2022-10-15T00:32:27;26.30;;;20.30;;
9374;SDS011;4727;51.202;6.344;2022-10-15T00:34:53;23.67;;;21.13;;
9374;SDS011;4727;51.202;6.344;2022-10-15T00:37:19;25.43;;;20.70;;
9374;SDS011;4727;51.202;6.344;2022-10-15T00:39:45;23.90;;;21.30;;
9374;SDS011;4727;51.202;6.344;2022-10-15T00:42:11;28.93;;;23.03;;
9374;SDS011;4727;51.202;6.344;2022-10-15T00:47:22;27.13;;;21.80;;
9374;SDS011;4727;51.202;6.344;2022-10-15T00:50:00;25.23;;;22.63;;
9374;SDS011;4727;51.202;6.344;2022-10-15T00:52:56;24.13;;;21.63;;
9374;SDS011;4727;51.202;6.344;2022-10-15T00:57:54;25.93;;;23.13;;
9374;SDS011;4727;51.202;6.344;2022-10-15T01:00:22;24.77;;;22.23;;
9374;SDS011;4727;51.202;6.344;2022-10-15T01:02:48;28.57;;;22.33;;
9374;SDS011;4727;51.202;6.344;2022-10-15T01:05:14;25.93;;;23.13;;
9374;SDS011;4727;51.202;6.344;2022-10-15T01:07:42;29.03;;;22.63;;
9374;SDS011;4727;51.202;6.344;2022-10-15T01:10:08;28.73;;;23.23;;
9374;SDS011;4727;51.202;6.344;2022-10-15T01:12:41;28.27;;;23.43;;
9374;SDS011;4727;51.202;6.344;2022-10-15T01:15:22;28.33;;;24.27;;
9374;SDS011;4727;51.202;6.344;2022-10-15T01:17:53;28.30;;;25.23;;
9374;SDS011;4727;51.202;6.344;2022-10-15T01:23:44;30.37;;;25.37;;
9374;SDS011;4727;51.202;6.344;2022-10-15T01:34:43;33.03;;;25.70;;
9374;SDS011;4727;51.202;6.344;2022-10-15T01:40:18;31.40;;;24.57;;
9374;SDS011;4727;51.202;6.344;2022-10-15T01:42:53;31.03;;;24.73;;
9374;SDS011;4727;51.202;6.344;2022-10-15T01:45:29;29.43;;;25.83;;
9374;SDS011;4727;51.202;6.344;2022-10-15T01:48:08;29.37;;;24.67;;
9374;SDS011;4727;51.202;6.344;2022-10-15T01:50:36;30.60;;;26.07;;
9374;SDS011;4727;51.202;6.344;2022-10-15T01:53:06;27.47;;;24.57;;
9374;SDS011;4727;51.202;6.344;2022-10-15T01:55:33;31.87;;;25.40;;
9374;SDS011;4727;51.202;6.344;2022-10-15T01:58:01;32.97;;;25.37;;
9374;SDS011;4727;51.202;6.344;2022-10-15T02:00:29;30.57;;;25.57;;
9374;SDS011;4727;51.202;6.344;2022-10-15T02:02:58;30.57;;;24.97;;
9374;SDS011;4727;51.202;6.344;2022-10-15T02:05:25;30.70;;;23.83;;
9374;SDS011;4727;51.202;6.344;2022-10-15T02:08:09;30.20;;;25.33;;
9374;SDS011;4727;51.202;6.344;2022-10-15T02:11:03;34.07;;;25.43;;
9374;SDS011;4727;51.202;6.344;2022-10-15T02:13:36;32.23;;;25.43;;
9374;SDS011;4727;51.202;6.344;2022-10-15T02:19:29;31.90;;;25.33;;
9374;SDS011;4727;51.202;6.344;2022-10-15T02:24:27;35.77;;;27.20;;
9374;SDS011;4727;51.202;6.344;2022-10-15T02:27:04;40.03;;;28.47;;
9374;SDS011;4727;51.202;6.344;2022-10-15T02:29:31;33.57;;;27.70;;
9374;SDS011;4727;51.202;6.344;2022-10-15T02:32:00;35.20;;;26.77;;
9374;SDS011;4727;51.202;6.344;2022-10-15T02:34:29;38.00;;;28.17;;
9374;SDS011;4727;51.202;6.344;2022-10-15T02:36:57;38.83;;;29.30;;
9374;SDS011;4727;51.202;6.344;2022-10-15T02:39:25;41.83;;;28.90;;
9374;SDS011;4727;51.202;6.344;2022-10-15T02:41:51;40.07;;;28.93;;
9374;SDS011;4727;51.202;6.344;2022-10-15T02:44:17;38.43;;;29.43;;
9374;SDS011;4727;51.202;6.344;2022-10-15T02:46:43;42.03;;;30.47;;
9374;SDS011;4727;51.202;6.344;2022-10-15T02:49:09;40.77;;;29.80;;
9374;SDS011;4727;51.202;6.344;2022-10-15T02:51:34;36.83;;;29.53;;
9374;SDS011;4727;51.202;6.344;2022-10-15T02:54:02;41.40;;;30.33;;
9374;SDS011;4727;51.202;6.344;2022-10-15T02:56:31;39.47;;;29.70;;
9374;SDS011;4727;51.202;6.344;2022-10-15T02:58:57;44.20;;;31.07;;
9374;SDS011;4727;51.202;6.344;2022-10-15T03:01:22;43.23;;;29.97;;
9374;SDS011;4727;51.202;6.344;2022-10-15T03:03:48;42.33;;;31.67;;
9374;SDS011;4727;51.202;6.344;2022-10-15T03:06:14;42.93;;;31.60;;
9374;SDS011;4727;51.202;6.344;2022-10-15T03:08:40;42.63;;;32.67;;
9374;SDS011;4727;51.202;6.344;2022-10-15T03:11:08;50.03;;;30.67;;
9374;SDS011;4727;51.202;6.344;2022-10-15T03:13:35;39.20;;;31.33;;
9374;SDS011;4727;51.202;6.344;2022-10-15T03:16:05;43.20;;;32.50;;
9374;SDS011;4727;51.202;6.344;2022-10-15T03:18:32;43.23;;;31.73;;
9374;SDS011;4727;51.202;6.344;2022-10-15T03:20:58;45.07;;;30.37;;
9374;SDS011;4727;51.202;6.344;2022-10-15T03:23:24;47.10;;;31.77;;
9374;SDS011;4727;51.202;6.344;2022-10-15T03:25:50;47.27;;;30.57;;
9374;SDS011;4727;51.202;6.344;2022-10-15T03:28:16;53.97;;;33.10;;
9374;SDS011;4727;51.202;6.344;2022-10-15T03:30:42;43.53;;;31.67;;
9374;SDS011;4727;51.202;6.344;2022-10-15T03:33:08;43.13;;;30.53;;
9374;SDS011;4727;51.202;6.344;2022-10-15T03:35:34;47.47;;;30.90;;
9374;SDS011;4727;51.202;6.344;2022-10-15T03:38:00;42.77;;;30.53;;
9374;SDS011;4727;51.202;6.344;2022-10-15T03:40:25;40.20;;;28.50;;
9374;SDS011;4727;51.202;6.344;2022-10-15T03:42:51;41.83;;;29.13;;
9374;SDS011;4727;51.202;6.344;2022-10-15T03:45:19;33.33;;;26.53;;
9374;SDS011;4727;51.202;6.344;2022-10-15T03:47:45;38.20;;;28.80;;
9374;SDS011;4727;51.202;6.344;2022-10-15T03:50:11;43.77;;;28.63;;
9374;SDS011;4727;51.202;6.344;2022-10-15T03:52:37;40.40;;;28.83;;
9374;SDS011;4727;51.202;6.344;2022-10-15T03:55:03;40.63;;;28.17;;
9374;SDS011;4727;51.202;6.344;2022-10-15T03:57:29;43.63;;;30.43;;
9374;SDS011;4727;51.202;6.344;2022-10-15T03:59:55;42.40;;;29.23;;
9374;SDS011;4727;51.202;6.344;2022-10-15T04:02:21;43.67;;;30.63;;
9374;SDS011;4727;51.202;6.344;2022-10-15T04:04:47;41.93;;;30.80;;
9374;SDS011;4727;51.202;6.344;2022-10-15T04:07:17;43.20;;;30.00;;
9374;SDS011;4727;51.202;6.344;2022-10-15T04:09:43;42.27;;;29.07;;
9374;SDS011;4727;51.202;6.344;2022-10-15T04:12:08;42.50;;;30.40;;
9374;SDS011;4727;51.202;6.344;2022-10-15T04:14:34;40.30;;;29.10;;
9374;SDS011;4727;51.202;6.344;2022-10-15T04:17:00;41.47;;;29.33;;
9374;SDS011;4727;51.202;6.344;2022-10-15T04:19:25;40.17;;;28.67;;
9374;SDS011;4727;51.202;6.344;2022-10-15T04:21:51;47.03;;;30.33;;
9374;SDS011;4727;51.202;6.344;2022-10-15T04:24:16;37.60;;;28.20;;
9374;SDS011;4727;51.202;6.344;2022-10-15T04:26:42;41.43;;;29.47;;
9374;SDS011;4727;51.202;6.344;2022-10-15T04:29:08;38.43;;;28.67;;
9374;SDS011;4727;51.202;6.344;2022-10-15T04:31:33;40.77;;;29.10;;
9374;SDS011;4727;51.202;6.344;2022-10-15T04:33:59;41.10;;;30.10;;
9374;SDS011;4727;51.202;6.344;2022-10-15T04:36:24;38.33;;;28.93;;
9374;SDS011;4727;51.202;6.344;2022-10-15T04:38:51;43.27;;;30.57;;
9374;SDS011;4727;51.202;6.344;2022-10-15T04:41:16;42.57;;;29.50;;
9374;SDS011;4727;51.202;6.344;2022-10-15T04:43:42;41.47;;;27.97;;
9374;SDS011;4727;51.202;6.344;2022-10-15T04:46:08;44.07;;;30.50;;
9374;SDS011;4727;51.202;6.344;2022-10-15T04:48:34;45.90;;;30.93;;
9374;SDS011;4727;51.202;6.344;2022-10-15T04:51:02;42.93;;;28.67;;
9374;SDS011;4727;51.202;6.344;2022-10-15T04:53:32;36.53;;;26.80;;
9374;SDS011;4727;51.202;6.344;2022-10-15T04:55:59;49.27;;;27.90;;
9374;SDS011;4727;51.202;6.344;2022-10-15T04:58:30;40.93;;;28.17;;
9374;SDS011;4727;51.202;6.344;2022-10-15T05:01:02;40.43;;;27.87;;
9374;SDS011;4727;51.202;6.344;2022-10-15T05:03:30;40.47;;;27.47;;
9374;SDS011;4727;51.202;6.344;2022-10-15T05:06:04;40.97;;;26.33;;
9374;SDS011;4727;51.202;6.344;2022-10-15T05:08:31;38.20;;;26.60;;
9374;SDS011;4727;51.202;6.344;2022-10-15T05:11:04;43.13;;;27.53;;
9374;SDS011;4727;51.202;6.344;2022-10-15T05:13:32;43.40;;;27.40;;
9374;SDS011;4727;51.202;6.344;2022-10-15T05:16:07;46.17;;;28.23;;
9374;SDS011;4727;51.202;6.344;2022-10-15T05:18:40;44.07;;;29.23;;
9374;SDS011;4727;51.202;6.344;2022-10-15T05:21:07;46.10;;;28.80;;
9374;SDS011;4727;51.202;6.344;2022-10-15T05:23:33;46.80;;;29.43;;
9374;SDS011;4727;51.202;6.344;2022-10-15T05:26:01;43.60;;;29.77;;
9374;SDS011;4727;51.202;6.344;2022-10-15T05:28:41;46.13;;;31.23;;
9374;SDS011;4727;51.202;6.344;2022-10-15T05:31:08;74.50;;;41.70;;
9374;SDS011;4727;51.202;6.344;2022-10-15T05:33:35;49.33;;;30.57;;
9374;SDS011;4727;51.202;6.344;2022-10-15T05:36:10;52.00;;;31.20;;
9374;SDS011;4727;51.202;6.344;2022-10-15T05:38:41;59.93;;;32.43;;
9374;SDS011;4727;51.202;6.344;2022-10-15T05:41:18;50.17;;;32.03;;
9374;SDS011;4727;51.202;6.344;2022-10-15T05:43:45;49.87;;;31.93;;
9374;SDS011;4727;51.202;6.344;2022-10-15T05:46:11;53.97;;;32.07;;
9374;SDS011;4727;51.202;6.344;2022-10-15T05:48:37;58.27;;;32.10;;
9374;SDS011;4727;51.202;6.344;2022-10-15T05:51:04;60.00;;;33.20;;
9374;SDS011;4727;51.202;6.344;2022-10-15T05:53:31;54.40;;;32.87;;
9374;SDS011;4727;51.202;6.344;2022-10-15T05:55:56;62.30;;;35.30;;
9374;SDS011;4727;51.202;6.344;2022-10-15T05:58:23;55.10;;;31.90;;
9374;SDS011;4727;51.202;6.344;2022-10-15T06:00:56;58.20;;;33.67;;
9374;SDS011;4727;51.202;6.344;2022-10-15T06:03:23;61.20;;;35.07;;
9374;SDS011;4727;51.202;6.344;2022-10-15T06:05:49;63.40;;;37.10;;
9374;SDS011;4727;51.202;6.344;2022-10-15T06:08:15;59.27;;;36.17;;
9374;SDS011;4727;51.202;6.344;2022-10-15T06:10:45;63.20;;;36.73;;
9374;SDS011;4727;51.202;6.344;2022-10-15T06:13:10;70.47;;;37.93;;
9374;SDS011;4727;51.202;6.344;2022-10-15T06:15:40;75.47;;;39.73;;
9374;SDS011;4727;51.202;6.344;2022-10-15T06:18:07;67.80;;;38.83;;
9374;SDS011;4727;51.202;6.344;2022-10-15T06:20:34;74.53;;;40.50;;
9374;SDS011;4727;51.202;6.344;2022-10-15T06:23:02;76.97;;;41.77;;
9374;SDS011;4727;51.202;6.344;2022-10-15T06:25:29;68.97;;;40.07;;
9374;SDS011;4727;51.202;6.344;2022-10-15T06:27:59;73.07;;;40.47;;
9374;SDS011;4727;51.202;6.344;2022-10-15T06:30:26;66.37;;;40.80;;
9374;SDS011;4727;51.202;6.344;2022-10-15T06:32:52;68.07;;;41.63;;
9374;SDS011;4727;51.202;6.344;2022-10-15T06:35:19;71.77;;;41.70;;
9374;SDS011;4727;51.202;6.344;2022-10-15T06:37:46;75.70;;;40.93;;
9374;SDS011;4727;51.202;6.344;2022-10-15T06:40:15;67.23;;;38.63;;
9374;SDS011;4727;51.202;6.344;2022-10-15T06:42:41;68.27;;;40.67;;
9374;SDS011;4727;51.202;6.344;2022-10-15T06:45:07;72.90;;;40.80;;
9374;SDS011;4727;51.202;6.344;2022-10-15T06:47:39;72.60;;;39.37;;
9374;SDS011;4727;51.202;6.344;2022-10-15T06:50:05;71.90;;;39.37;;
9374;SDS011;4727;51.202;6.344;2022-10-15T06:52:31;69.63;;;40.43;;
9374;SDS011;4727;51.202;6.344;2022-10-15T06:55:00;78.07;;;40.90;;
9374;SDS011;4727;51.202;6.344;2022-10-15T06:57:27;72.13;;;40.73;;
9374;SDS011;4727;51.202;6.344;2022-10-15T06:59:55;71.17;;;40.63;;
9374;SDS011;4727;51.202;6.344;2022-10-15T07:02:21;81.90;;;42.60;;
9374;SDS011;4727;51.202;6.344;2022-10-15T07:04:48;68.53;;;39.33;;
9374;SDS011;4727;51.202;6.344;2022-10-15T07:07:14;71.13;;;39.47;;
9374;SDS011;4727;51.202;6.344;2022-10-15T07:09:39;75.23;;;40.80;;
9374;SDS011;4727;51.202;6.344;2022-10-15T07:12:05;73.70;;;38.93;;
9374;SDS011;4727;51.202;6.344;2022-10-15T07:14:31;75.20;;;38.03;;
9374;SDS011;4727;51.202;6.344;2022-10-15T07:16:57;64.57;;;38.90;;
9374;SDS011;4727;51.202;6.344;2022-10-15T07:19:23;70.37;;;40.10;;
9374;SDS011;4727;51.202;6.344;2022-10-15T07:21:48;66.37;;;38.97;;
9374;SDS011;4727;51.202;6.344;2022-10-15T07:24:14;64.87;;;37.57;;
9374;SDS011;4727;51.202;6.344;2022-10-15T07:26:43;66.57;;;38.40;;
9374;SDS011;4727;51.202;6.344;2022-10-15T07:29:08;64.97;;;40.20;;
9374;SDS011;4727;51.202;6.344;2022-10-15T07:31:34;56.90;;;34.40;;
9374;SDS011;4727;51.202;6.344;2022-10-15T07:34:00;60.00;;;35.53;;
9374;SDS011;4727;51.202;6.344;2022-10-15T07:36:25;57.40;;;35.27;;
9374;SDS011;4727;51.202;6.344;2022-10-15T07:38:51;62.63;;;36.67;;
9374;SDS011;4727;51.202;6.344;2022-10-15T07:41:17;56.80;;;34.60;;
9374;SDS011;4727;51.202;6.344;2022-10-15T07:43:42;53.17;;;35.03;;
9374;SDS011;4727;51.202;6.344;2022-10-15T07:46:08;58.67;;;34.37;;
9374;SDS011;4727;51.202;6.344;2022-10-15T07:48:36;51.33;;;32.47;;
9374;SDS011;4727;51.202;6.344;2022-10-15T07:51:03;47.07;;;31.57;;
9374;SDS011;4727;51.202;6.344;2022-10-15T07:53:31;47.33;;;29.87;;
9374;SDS011;4727;51.202;6.344;2022-10-15T07:55:58;45.77;;;28.80;;
9374;SDS011;4727;51.202;6.344;2022-10-15T07:58:24;45.07;;;29.77;;
9374;SDS011;4727;51.202;6.344;2022-10-15T08:00:50;43.00;;;27.57;;
9374;SDS011;4727;51.202;6.344;2022-10-15T08:03:16;42.17;;;26.90;;
9374;SDS011;4727;51.202;6.344;2022-10-15T08:05:41;38.70;;;26.27;;
9374;SDS011;4727;51.202;6.344;2022-10-15T08:08:07;33.20;;;23.43;;
9374;SDS011;4727;51.202;6.344;2022-10-15T08:10:33;35.20;;;24.27;;
9374;SDS011;4727;51.202;6.344;2022-10-15T08:12:59;31.80;;;22.33;;
9374;SDS011;4727;51.202;6.344;2022-10-15T08:15:25;33.50;;;22.50;;
9374;SDS011;4727;51.202;6.344;2022-10-15T08:17:51;32.10;;;21.70;;
9374;SDS011;4727;51.202;6.344;2022-10-15T08:20:16;29.27;;;20.60;;
9374;SDS011;4727;51.202;6.344;2022-10-15T08:22:42;28.90;;;21.27;;
9374;SDS011;4727;51.202;6.344;2022-10-15T08:25:07;27.93;;;18.27;;
9374;SDS011;4727;51.202;6.344;2022-10-15T08:27:33;25.10;;;19.60;;
9374;SDS011;4727;51.202;6.344;2022-10-15T08:30:00;25.23;;;19.13;;
9374;SDS011;4727;51.202;6.344;2022-10-15T08:32:29;24.97;;;19.47;;
9374;SDS011;4727;51.202;6.344;2022-10-15T08:34:54;23.87;;;18.87;;
9374;SDS011;4727;51.202;6.344;2022-10-15T08:37:20;24.03;;;19.73;;
9374;SDS011;4727;51.202;6.344;2022-10-15T08:39:46;20.60;;;17.87;;
9374;SDS011;4727;51.202;6.344;2022-10-15T08:42:17;24.67;;;17.53;;
9374;SDS011;4727;51.202;6.344;2022-10-15T08:44:56;18.93;;;15.67;;
9374;SDS011;4727;51.202;6.344;2022-10-15T08:49:57;16.60;;;14.83;;
9374;SDS011;4727;51.202;6.344;2022-10-15T08:52:43;17.87;;;14.70;;
9374;SDS011;4727;51.202;6.344;2022-10-15T08:55:16;16.57;;;13.50;;
9374;SDS011;4727;51.202;6.344;2022-10-15T09:00:29;17.27;;;14.23;;
9374;SDS011;4727;51.202;6.344;2022-10-15T09:03:22;13.27;;;11.87;;
9374;SDS011;4727;51.202;6.344;2022-10-15T09:06:12;12.23;;;11.10;;
9374;SDS011;4727;51.202;6.344;2022-10-15T09:09:05;12.23;;;10.97;;
9374;SDS011;4727;51.202;6.344;2022-10-15T09:11:53;12.60;;;10.53;;
9374;SDS011;4727;51.202;6.344;2022-10-15T09:14:41;10.70;;;9.57;;
9374;SDS011;4727;51.202;6.344;2022-10-15T09:17:13;9.30;;;7.47;;
9374;SDS011;4727;51.202;6.344;2022-10-15T09:19:45;6.73;;;6.13;;
9374;SDS011;4727;51.202;6.344;2022-10-15T09:22:16;8.40;;;5.10;;
9374;SDS011;4727;51.202;6.344;2022-10-15T09:24:43;8.67;;;5.13;;
9374;SDS011;4727;51.202;6.344;2022-10-15T09:27:14;4.80;;;4.30;;
9374;SDS011;4727;51.202;6.344;2022-10-15T09:30:03;4.83;;;4.13;;
9374;SDS011;4727;51.202;6.344;2022-10-15T09:35:29;3.77;;;3.33;;
9374;SDS011;4727;51.202;6.344;2022-10-15T09:38:05;5.47;;;3.57;;
9374;SDS011;4727;51.202;6.344;2022-10-15T09:40:55;5.17;;;3.20;;
9374;SDS011;4727;51.202;6.344;2022-10-15T09:43:49;3.17;;;2.87;;
9374;SDS011;4727;51.202;6.344;2022-10-15T09:46:16;3.67;;;2.93;;
9374;SDS011;4727;51.202;6.344;2022-10-15T09:48:46;3.07;;;2.73;;
9374;SDS011;4727;51.202;6.344;2022-10-15T09:51:51;4.17;;;2.40;;
9374;SDS011;4727;51.202;6.344;2022-10-15T09:57:19;2.90;;;2.60;;
9374;SDS011;4727;51.202;6.344;2022-10-15T09:59:54;2.90;;;2.50;;
9374;SDS011;4727;51.202;6.344;2022-10-15T10:02:22;2.70;;;2.50;;
9374;SDS011;4727;51.202;6.344;2022-10-15T10:04:49;2.70;;;2.50;;
9374;SDS011;4727;51.202;6.344;2022-10-15T10:07:28;2.70;;;2.50;;
9374;SDS011;4727;51.202;6.344;2022-10-15T10:09:57;4.00;;;2.67;;
9374;SDS011;4727;51.202;6.344;2022-10-15T10:12:33;3.53;;;2.40;;
9374;SDS011;4727;51.202;6.344;2022-10-15T10:15:45;3.23;;;2.33;;
9374;SDS011;4727;51.202;6.344;2022-10-15T10:17:50;3.23;;;2.93;;
9374;SDS011;4727;51.202;6.344;2022-10-15T10:20:18;3.23;;;2.60;;
9374;SDS011;4727;51.202;6.344;2022-10-15T10:22:46;3.40;;;2.33;;
9374;SDS011;4727;51.202;6.344;2022-10-15T10:27:53;3.13;;;2.63;;
9374;SDS011;4727;51.202;6.344;2022-10-15T10:30:20;5.27;;;3.10;;
9374;SDS011;4727;51.202;6.344;2022-10-15T10:32:46;3.47;;;2.60;;
9374;SDS011;4727;51.202;6.344;2022-10-15T10:35:20;4.97;;;2.93;;
9374;SDS011;4727;51.202;6.344;2022-10-15T10:37:47;3.53;;;2.63;;
9374;SDS011;4727;51.202;6.344;2022-10-15T10:40:30;5.63;;;2.60;;
9374;SDS011;4727;51.202;6.344;2022-10-15T10:43:16;2.73;;;2.53;;
9374;SDS011;4727;51.202;6.344;2022-10-15T10:48:48;4.33;;;2.60;;
9374;SDS011;4727;51.202;6.344;2022-10-15T10:51:16;3.17;;;2.80;;
9374;SDS011;4727;51.202;6.344;2022-10-15T10:53:54;2.60;;;2.40;;
9374;SDS011;4727;51.202;6.344;2022-10-15T10:56:27;2.90;;;2.60;;
9374;SDS011;4727;51.202;6.344;2022-10-15T10:58:59;4.87;;;2.63;;
9374;SDS011;4727;51.202;6.344;2022-10-15T11:01:33;3.83;;;2.40;;
9374;SDS011;4727;51.202;6.344;2022-10-15T11:03:58;2.83;;;2.57;;
9374;SDS011;4727;51.202;6.344;2022-10-15T11:09:01;2.53;;;2.33;;
9374;SDS011;4727;51.202;6.344;2022-10-15T11:14:31;2.57;;;2.27;;
9374;SDS011;4727;51.202;6.344;2022-10-15T11:19:53;4.50;;;2.37;;
9374;SDS011;4727;51.202;6.344;2022-10-15T11:25:53;2.70;;;2.43;;
9374;SDS011;4727;51.202;6.344;2022-10-15T11:28:50;3.40;;;2.50;;
9374;SDS011;4727;51.202;6.344;2022-10-15T11:31:34;3.60;;;2.80;;
9374;SDS011;4727;51.202;6.344;2022-10-15T11:34:13;3.20;;;2.97;;
9374;SDS011;4727;51.202;6.344;2022-10-15T11:37:06;3.30;;;3.10;;
9374;SDS011;4727;51.202;6.344;2022-10-15T11:42:23;3.77;;;2.37;;
9374;SDS011;4727;51.202;6.344;2022-10-15T11:45:06;3.17;;;2.50;;
9374;SDS011;4727;51.202;6.344;2022-10-15T11:50:25;3.67;;;3.37;;
9374;SDS011;4727;51.202;6.344;2022-10-15T11:58:42;1.83;;;1.40;;
9374;SDS011;4727;51.202;6.344;2022-10-15T12:01:34;1.10;;;1.00;;
9374;SDS011;4727;51.202;6.344;2022-10-15T12:04:11;1.17;;;0.80;;
9374;SDS011;4727;51.202;6.344;2022-10-15T12:06:44;0.60;;;0.60;;
9374;SDS011;4727;51.202;6.344;2022-10-15T12:09:14;1.07;;;0.90;;
9374;SDS011;4727;51.202;6.344;2022-10-15T12:11:49;0.90;;;0.90;;
9374;SDS011;4727;51.202;6.344;2022-10-15T12:17:40;0.70;;;0.70;;
9374;SDS011;4727;51.202;6.344;2022-10-15T12:20:21;1.07;;;0.80;;
9374;SDS011;4727;51.202;6.344;2022-10-15T12:30:37;1.30;;;1.20;;
9374;SDS011;4727;51.202;6.344;2022-10-15T12:35:53;1.07;;;0.93;;
9374;SDS011;4727;51.202;6.344;2022-10-15T12:38:25;2.20;;;1.10;;
9374;SDS011;4727;51.202;6.344;2022-10-15T12:40:57;0.77;;;0.77;;
9374;SDS011;4727;51.202;6.344;2022-10-15T12:43:25;2.93;;;2.13;;
9374;SDS011;4727;51.202;6.344;2022-10-15T12:45:53;1.60;;;1.50;;
9374;SDS011;4727;51.202;6.344;2022-10-15T12:48:27;2.77;;;1.20;;
9374;SDS011;4727;51.202;6.344;2022-10-15T12:51:27;1.00;;;1.00;;
9374;SDS011;4727;51.202;6.344;2022-10-15T12:53:49;1.53;;;1.43;;
9374;SDS011;4727;51.202;6.344;2022-10-15T12:58:45;1.93;;;1.80;;
9374;SDS011;4727;51.202;6.344;2022-10-15T13:06:14;1.30;;;1.13;;
9374;SDS011;4727;51.202;6.344;2022-10-15T13:08:45;1.00;;;1.00;;
9374;SDS011;4727;51.202;6.344;2022-10-15T13:11:26;1.30;;;1.30;;
9374;SDS011;4727;51.202;6.344;2022-10-15T13:14:01;1.33;;;1.10;;
9374;SDS011;4727;51.202;6.344;2022-10-15T13:16:47;1.30;;;1.00;;
9374;SDS011;4727;51.202;6.344;2022-10-15T13:21:51;1.40;;;1.10;;
9374;SDS011;4727;51.202;6.344;2022-10-15T13:24:20;0.90;;;0.90;;
9374;SDS011;4727;51.202;6.344;2022-10-15T13:26:48;1.97;;;1.27;;
9374;SDS011;4727;51.202;6.344;2022-10-15T13:29:14;2.37;;;2.17;;
9374;SDS011;4727;51.202;6.344;2022-10-15T13:31:44;1.60;;;1.53;;
9374;SDS011;4727;51.202;6.344;2022-10-15T13:34:30;1.30;;;1.20;;
9374;SDS011;4727;51.202;6.344;2022-10-15T13:37:00;1.40;;;1.30;;
9374;SDS011;4727;51.202;6.344;2022-10-15T13:39:31;2.20;;;1.30;;
9374;SDS011;4727;51.202;6.344;2022-10-15T13:42:18;1.67;;;1.40;;
9374;SDS011;4727;51.202;6.344;2022-10-15T13:44:58;1.23;;;1.07;;
9374;SDS011;4727;51.202;6.344;2022-10-15T13:47:29;1.30;;;1.20;;
9374;SDS011;4727;51.202;6.344;2022-10-15T13:50:17;1.13;;;1.03;;
9374;SDS011;4727;51.202;6.344;2022-10-15T13:55:18;1.40;;;1.30;;
9374;SDS011;4727;51.202;6.344;2022-10-15T13:57:46;1.60;;;1.50;;
9374;SDS011;4727;51.202;6.344;2022-10-15T14:00:18;3.40;;;1.80;;
9374;SDS011;4727;51.202;6.344;2022-10-15T14:05:47;3.53;;;1.90;;
9374;SDS011;4727;51.202;6.344;2022-10-15T14:08:15;16.03;;;8.73;;
9374;SDS011;4727;51.202;6.344;2022-10-15T14:10:47;3.17;;;2.97;;
9374;SDS011;4727;51.202;6.344;2022-10-15T14:13:14;2.60;;;1.90;;
9374;SDS011;4727;51.202;6.344;2022-10-15T14:15:43;2.53;;;2.10;;
9374;SDS011;4727;51.202;6.344;2022-10-15T14:18:14;2.33;;;2.23;;
9374;SDS011;4727;51.202;6.344;2022-10-15T14:20:43;2.37;;;2.10;;
9374;SDS011;4727;51.202;6.344;2022-10-15T14:23:14;1.73;;;1.63;;
9374;SDS011;4727;51.202;6.344;2022-10-15T14:25:44;3.20;;;2.00;;
9374;SDS011;4727;51.202;6.344;2022-10-15T14:28:19;2.00;;;1.90;;
9374;SDS011;4727;51.202;6.344;2022-10-15T14:30:46;2.30;;;2.20;;
9374;SDS011;4727;51.202;6.344;2022-10-15T14:33:32;57.27;;;51.10;;
9374;SDS011;4727;51.202;6.344;2022-10-15T14:36:02;3.63;;;2.90;;
9374;SDS011;4727;51.202;6.344;2022-10-15T14:38:37;2.40;;;2.30;;
9374;SDS011;4727;51.202;6.344;2022-10-15T14:41:46;3.27;;;2.90;;
9374;SDS011;4727;51.202;6.344;2022-10-15T14:44:04;2.90;;;2.60;;
9374;SDS011;4727;51.202;6.344;2022-10-15T14:46:42;4.23;;;3.93;;
9374;SDS011;4727;51.202;6.344;2022-10-15T14:51:55;2.20;;;2.00;;
9374;SDS011;4727;51.202;6.344;2022-10-15T14:54:36;2.50;;;2.30;;
9374;SDS011;4727;51.202;6.344;2022-10-15T14:57:11;2.50;;;2.30;;
9374;SDS011;4727;51.202;6.344;2022-10-15T14:59:46;2.20;;;2.00;;
9374;SDS011;4727;51.202;6.344;2022-10-15T15:02:13;2.77;;;2.57;;
9374;SDS011;4727;51.202;6.344;2022-10-15T15:04:41;2.53;;;2.33;;
9374;SDS011;4727;51.202;6.344;2022-10-15T15:07:13;3.10;;;2.80;;
9374;SDS011;4727;51.202;6.344;2022-10-15T15:09:40;2.90;;;2.70;;
9374;SDS011;4727;51.202;6.344;2022-10-15T15:12:09;3.17;;;3.03;;
9374;SDS011;4727;51.202;6.344;2022-10-15T15:14:43;3.43;;;3.23;;
9374;SDS011;4727;51.202;6.344;2022-10-15T15:17:11;3.83;;;3.50;;
9374;SDS011;4727;51.202;6.344;2022-10-15T15:19:40;3.70;;;3.40;;
9374;SDS011;4727;51.202;6.344;2022-10-15T15:22:07;3.80;;;3.50;;
9374;SDS011;4727;51.202;6.344;2022-10-15T15:24:38;3.83;;;3.53;;
9374;SDS011;4727;51.202;6.344;2022-10-15T15:27:04;3.80;;;3.50;;
9374;SDS011;4727;51.202;6.344;2022-10-15T15:29:30;4.03;;;3.57;;
9374;SDS011;4727;51.202;6.344;2022-10-15T15:31:55;4.20;;;3.80;;
9374;SDS011;4727;51.202;6.344;2022-10-15T15:34:21;4.33;;;4.03;;
9374;SDS011;4727;51.202;6.344;2022-10-15T15:36:47;4.10;;;3.80;;
9374;SDS011;4727;51.202;6.344;2022-10-15T15:39:13;4.07;;;3.80;;
9374;SDS011;4727;51.202;6.344;2022-10-15T15:41:39;3.70;;;3.40;;
9374;SDS011;4727;51.202;6.344;2022-10-15T15:44:05;3.63;;;3.30;;
9374;SDS011;4727;51.202;6.344;2022-10-15T15:46:31;3.83;;;3.53;;
9374;SDS011;4727;51.202;6.344;2022-10-15T15:48:57;4.97;;;3.77;;
9374;SDS011;4727;51.202;6.344;2022-10-15T15:53:50;4.60;;;4.30;;
9374;SDS011;4727;51.202;6.344;2022-10-15T15:56:16;4.60;;;4.30;;
9374;SDS011;4727;51.202;6.344;2022-10-15T15:58:42;4.57;;;4.17;;
9374;SDS011;4727;51.202;6.344;2022-10-15T16:01:07;4.60;;;4.20;;
9374;SDS011;4727;51.202;6.344;2022-10-15T16:03:33;4.47;;;4.17;;
9374;SDS011;4727;51.202;6.344;2022-10-15T16:05:58;4.60;;;4.20;;
9374;SDS011;4727;51.202;6.344;2022-10-15T16:08:24;5.43;;;4.10;;
9374;SDS011;4727;51.202;6.344;2022-10-15T16:10:50;4.77;;;4.37;;
9374;SDS011;4727;51.202;6.344;2022-10-15T16:13:15;4.30;;;4.00;;
9374;SDS011;4727;51.202;6.344;2022-10-15T16:15:41;4.60;;;4.20;;
9374;SDS011;4727;51.202;6.344;2022-10-15T16:18:06;4.53;;;4.13;;
9374;SDS011;4727;51.202;6.344;2022-10-15T16:20:33;4.90;;;4.50;;
9374;SDS011;4727;51.202;6.344;2022-10-15T16:23:03;4.57;;;4.17;;
9374;SDS011;4727;51.202;6.344;2022-10-15T16:25:28;6.30;;;4.20;;
9374;SDS011;4727;51.202;6.344;2022-10-15T16:27:54;4.80;;;4.33;;
9374;SDS011;4727;51.202;6.344;2022-10-15T16:30:21;4.97;;;4.57;;
9374;SDS011;4727;51.202;6.344;2022-10-15T16:32:46;5.07;;;4.57;;
9374;SDS011;4727;51.202;6.344;2022-10-15T16:35:12;5.00;;;4.50;;
9374;SDS011;4727;51.202;6.344;2022-10-15T16:37:37;5.10;;;4.60;;
9374;SDS011;4727;51.202;6.344;2022-10-15T16:40:03;5.63;;;5.23;;
9374;SDS011;4727;51.202;6.344;2022-10-15T16:42:29;4.93;;;4.47;;
9374;SDS011;4727;51.202;6.344;2022-10-15T16:44:55;4.90;;;4.50;;
9374;SDS011;4727;51.202;6.344;2022-10-15T16:47:20;4.93;;;4.50;;
9374;SDS011;4727;51.202;6.344;2022-10-15T16:49:46;4.67;;;4.27;;
9374;SDS011;4727;51.202;6.344;2022-10-15T16:52:12;5.00;;;4.50;;
9374;SDS011;4727;51.202;6.344;2022-10-15T16:54:37;5.37;;;4.60;;
9374;SDS011;4727;51.202;6.344;2022-10-15T16:57:03;5.13;;;4.73;;